sensor_id;sensor_type;location;lat;lon;timestamp;pressure;altitude;pressure_sealevel;temperature;humidity
23172;BME280;11754;42.664;23.594;2022-10-31T00:00:57;95891.25;;;10.53;60.13
23172;BME280;11754;42.664;23.594;2022-10-31T00:03:22;95901.75;;;10.45;60.35
23172;BME280;11754;42.664;23.594;2022-10-31T00:05:49;95902.22;;;10.22;60.83
23172;BME280;11754;42.664;23.594;2022-10-31T00:08:16;95904.81;;;10.14;61.28
23172;BME280;11754;42.664;23.594;2022-10-31T00:10:42;95905.34;;;10.00;62.02
23172;BME280;11754;42.664;23.594;2022-10-31T00:13:10;95907.59;;;9.95;62.72
23172;BME280;11754;42.664;23.594;2022-10-31T00:15:36;95910.53;;;9.92;62.71
23172;BME280;11754;42.664;23.594;2022-10-31T00:18:03;95922.44;;;9.96;63.51
23172;BME280;11754;42.664;23.594;2022-10-31T00:20:29;95911.56;;;9.99;63.59
23172;BME280;11754;42.664;23.594;2022-10-31T00:22:59;95902.31;;;9.95;63.98
23172;BME280;11754;42.664;23.594;2022-10-31T00:25:26;95898.03;;;9.94;64.77
23172;BME280;11754;42.664;23.594;2022-10-31T00:27:51;95912.09;;;10.02;64.76
23172;BME280;11754;42.664;23.594;2022-10-31T00:30:17;95911.56;;;9.99;64.99
23172;BME280;11754;42.664;23.594;2022-10-31T00:32:42;95910.44;;;10.01;65.29
23172;BME280;11754;42.664;23.594;2022-10-31T00:35:07;95901.56;;;10.02;64.76
23172;BME280;11754;42.664;23.594;2022-10-31T00:37:33;95897.19;;;10.11;64.67
23172;BME280;11754;42.664;23.594;2022-10-31T00:39:58;95905.09;;;10.11;64.81
23172;BME280;11754;42.664;23.594;2022-10-31T00:42:23;95905.09;;;10.11;65.03
23172;BME280;11754;42.664;23.594;2022-10-31T00:44:49;95914.28;;;10.07;65.10
23172;BME280;11754;42.664;23.594;2022-10-31T00:47:14;95919.03;;;10.03;66.02
23172;BME280;11754;42.664;23.594;2022-10-31T00:49:39;95914.91;;;10.01;66.00
23172;BME280;11754;42.664;23.594;2022-10-31T00:52:05;95907.97;;;10.00;65.48
23172;BME280;11754;42.664;23.594;2022-10-31T00:54:30;95907.34;;;10.06;65.50
23172;BME280;11754;42.664;23.594;2022-10-31T00:56:56;95903.47;;;10.10;65.28
23172;BME280;11754;42.664;23.594;2022-10-31T00:59:21;95901.19;;;10.15;65.38
23172;BME280;11754;42.664;23.594;2022-10-31T01:01:47;95902.81;;;10.16;64.92
23172;BME280;11754;42.664;23.594;2022-10-31T01:04:12;95901.19;;;10.15;64.76
23172;BME280;11754;42.664;23.594;2022-10-31T01:06:38;95890.72;;;10.05;64.98
23172;BME280;11754;42.664;23.594;2022-10-31T01:09:03;95906.53;;;10.05;65.31
23172;BME280;11754;42.664;23.594;2022-10-31T01:11:28;95922.13;;;9.99;65.55
23172;BME280;11754;42.664;23.594;2022-10-31T01:13:54;95918.22;;;10.03;65.23
23172;BME280;11754;42.664;23.594;2022-10-31T01:16:23;95912.44;;;9.99;65.33
23172;BME280;11754;42.664;23.594;2022-10-31T01:18:48;95917.69;;;9.99;65.39
23172;BME280;11754;42.664;23.594;2022-10-31T01:21:17;95911.38;;;9.92;65.60
23172;BME280;11754;42.664;23.594;2022-10-31T01:23:42;95925.44;;;10.01;65.23
23172;BME280;11754;42.664;23.594;2022-10-31T01:26:17;95919.19;;;10.02;65.64
23172;BME280;11754;42.664;23.594;2022-10-31T01:28:49;95924.44;;;10.02;65.50
23172;BME280;11754;42.664;23.594;2022-10-31T01:31:16;95915.19;;;9.98;65.40
23172;BME280;11754;42.664;23.594;2022-10-31T01:33:43;95919.69;;;10.05;65.52
23172;BME280;11754;42.664;23.594;2022-10-31T01:38:42;95923.25;;;10.14;66.05
23172;BME280;11754;42.664;23.594;2022-10-31T01:41:09;95918.94;;;10.13;65.95
23172;BME280;11754;42.664;23.594;2022-10-31T01:47:27;95917.47;;;10.28;65.79
23172;BME280;11754;42.664;23.594;2022-10-31T01:49:38;95923.91;;;10.16;66.32
23172;BME280;11754;42.664;23.594;2022-10-31T01:52:12;95926.41;;;10.36;66.25
23172;BME280;11754;42.664;23.594;2022-10-31T01:54:41;95917.94;;;10.50;65.75
23172;BME280;11754;42.664;23.594;2022-10-31T01:57:11;95918.97;;;10.57;65.37
23172;BME280;11754;42.664;23.594;2022-10-31T01:59:40;95928.88;;;10.63;65.45
23172;BME280;11754;42.664;23.594;2022-10-31T02:02:07;95927.28;;;10.70;64.92
23172;BME280;11754;42.664;23.594;2022-10-31T02:04:33;95925.94;;;10.66;64.86
23172;BME280;11754;42.664;23.594;2022-10-31T02:07:06;95921.88;;;10.72;64.99
23172;BME280;11754;42.664;23.594;2022-10-31T02:09:33;95918.06;;;10.74;64.36
23172;BME280;11754;42.664;23.594;2022-10-31T02:11:59;95930.91;;;10.69;64.53
23172;BME280;11754;42.664;23.594;2022-10-31T02:14:28;95935.25;;;10.52;65.29
23172;BME280;11754;42.664;23.594;2022-10-31T02:16:54;95917.56;;;10.45;65.22
23172;BME280;11754;42.664;23.594;2022-10-31T02:19:34;95929.72;;;10.64;64.82
23172;BME280;11754;42.664;23.594;2022-10-31T02:22:20;95921.81;;;10.64;64.39
23172;BME280;11754;42.664;23.594;2022-10-31T02:33:47;95947.06;;;10.66;63.87
23172;BME280;11754;42.664;23.594;2022-10-31T02:36:16;95947.06;;;10.66;63.89
23172;BME280;11754;42.664;23.594;2022-10-31T02:39:18;95934.03;;;10.65;64.40
23172;BME280;11754;42.664;23.594;2022-10-31T02:44:59;95942.09;;;10.63;65.25
23172;BME280;11754;42.664;23.594;2022-10-31T02:47:29;95950.63;;;10.57;65.92
23172;BME280;11754;42.664;23.594;2022-10-31T02:50:02;95934.44;;;10.52;66.09
23172;BME280;11754;42.664;23.594;2022-10-31T02:52:31;95935.13;;;10.54;66.38
23172;BME280;11754;42.664;23.594;2022-10-31T02:54:57;95945.41;;;10.65;65.87
23172;BME280;11754;42.664;23.594;2022-10-31T02:57:33;95931.59;;;10.71;65.44
23172;BME280;11754;42.664;23.594;2022-10-31T03:00:06;95936.63;;;10.82;64.97
23172;BME280;11754;42.664;23.594;2022-10-31T03:11:05;95953.53;;;11.06;63.84
23172;BME280;11754;42.664;23.594;2022-10-31T03:16:29;95942.06;;;11.15;63.52
23172;BME280;11754;42.664;23.594;2022-10-31T03:19:10;95947.34;;;11.15;63.36
23172;BME280;11754;42.664;23.594;2022-10-31T03:24:15;95947.88;;;11.27;63.22
23172;BME280;11754;42.664;23.594;2022-10-31T03:26:51;95960.09;;;11.28;63.53
23172;BME280;11754;42.664;23.594;2022-10-31T03:29:21;95956.63;;;11.27;63.48
23172;BME280;11754;42.664;23.594;2022-10-31T03:32:03;95957.94;;;11.31;63.41
23172;BME280;11754;42.664;23.594;2022-10-31T03:34:31;95963.63;;;11.45;63.34
23172;BME280;11754;42.664;23.594;2022-10-31T03:36:59;95963.94;;;11.42;63.30
23172;BME280;11754;42.664;23.594;2022-10-31T03:39:26;95970.03;;;11.42;63.27
23172;BME280;11754;42.664;23.594;2022-10-31T03:41:56;95955.53;;;11.46;63.18
23172;BME280;11754;42.664;23.594;2022-10-31T03:44:24;95958.03;;;11.56;62.88
23172;BME280;11754;42.664;23.594;2022-10-31T03:46:52;95956.88;;;11.50;63.08
23172;BME280;11754;42.664;23.594;2022-10-31T03:49:18;95962.16;;;11.50;63.32
23172;BME280;11754;42.664;23.594;2022-10-31T03:51:50;95962.16;;;11.50;63.19
23172;BME280;11754;42.664;23.594;2022-10-31T03:54:22;95970.44;;;11.55;63.02
23172;BME280;11754;42.664;23.594;2022-10-31T03:59:34;95971.25;;;11.56;63.03
23172;BME280;11754;42.664;23.594;2022-10-31T04:02:07;95965.63;;;11.51;63.20
23172;BME280;11754;42.664;23.594;2022-10-31T04:04:36;95975.53;;;11.57;63.08
23172;BME280;11754;42.664;23.594;2022-10-31T04:07:06;95980.81;;;11.57;63.37
23172;BME280;11754;42.664;23.594;2022-10-31T04:09:35;95967.28;;;11.52;63.44
23172;BME280;11754;42.664;23.594;2022-10-31T04:12:04;95984.16;;;11.67;63.20
23172;BME280;11754;42.664;23.594;2022-10-31T04:14:32;95982.53;;;11.66;63.19
23172;BME280;11754;42.664;23.594;2022-10-31T04:16:59;95986.66;;;11.69;63.09
23172;BME280;11754;42.664;23.594;2022-10-31T04:19:26;95981.88;;;11.72;62.67
23172;BME280;11754;42.664;23.594;2022-10-31T04:21:51;95988.47;;;11.68;62.98
23172;BME280;11754;42.664;23.594;2022-10-31T04:24:17;95985.78;;;11.60;62.88
23172;BME280;11754;42.664;23.594;2022-10-31T04:26:42;95999.19;;;11.59;62.89
23172;BME280;11754;42.664;23.594;2022-10-31T04:29:08;96001.13;;;11.48;62.89
23172;BME280;11754;42.664;23.594;2022-10-31T04:31:33;95989.31;;;11.35;63.15
23172;BME280;11754;42.664;23.594;2022-10-31T04:33:58;95985.63;;;11.19;63.65
23172;BME280;11754;42.664;23.594;2022-10-31T04:36:24;96009.41;;;11.19;63.67
23172;BME280;11754;42.664;23.594;2022-10-31T04:38:49;96000.41;;;11.04;63.82
23172;BME280;11754;42.664;23.594;2022-10-31T04:41:14;95987.09;;;10.88;64.33
23172;BME280;11754;42.664;23.594;2022-10-31T04:43:40;96001.28;;;10.87;64.38
23172;BME280;11754;42.664;23.594;2022-10-31T04:46:05;95981.91;;;10.78;64.36
23172;BME280;11754;42.664;23.594;2022-10-31T04:48:30;95998.91;;;10.75;64.76
23172;BME280;11754;42.664;23.594;2022-10-31T04:51:00;96010.38;;;10.66;65.13
23172;BME280;11754;42.664;23.594;2022-10-31T04:53:25;96008.72;;;10.65;65.41
23172;BME280;11754;42.664;23.594;2022-10-31T04:55:50;96014.38;;;10.52;66.24
23172;BME280;11754;42.664;23.594;2022-10-31T04:58:16;96017.41;;;10.57;65.95
23172;BME280;11754;42.664;23.594;2022-10-31T05:00:41;96007.91;;;10.65;65.88
23172;BME280;11754;42.664;23.594;2022-10-31T05:03:07;96014.59;;;10.59;66.71
23172;BME280;11754;42.664;23.594;2022-10-31T05:05:32;96013.25;;;10.55;67.23
23172;BME280;11754;42.664;23.594;2022-10-31T05:07:57;96020.91;;;10.66;66.65
23172;BME280;11754;42.664;23.594;2022-10-31T05:10:25;96017.28;;;10.67;66.63
23172;BME280;11754;42.664;23.594;2022-10-31T05:12:55;96033.97;;;10.68;67.43
23172;BME280;11754;42.664;23.594;2022-10-31T05:15:23;96020.97;;;10.74;67.18
23172;BME280;11754;42.664;23.594;2022-10-31T05:17:49;96017.44;;;10.83;67.03
23172;BME280;11754;42.664;23.594;2022-10-31T05:20:16;96014.84;;;10.92;66.94
23172;BME280;11754;42.664;23.594;2022-10-31T05:22:46;96038.81;;;10.98;66.56
23172;BME280;11754;42.664;23.594;2022-10-31T05:25:12;96038.31;;;11.03;66.34
23172;BME280;11754;42.664;23.594;2022-10-31T05:27:48;96024.47;;;11.01;66.30
23172;BME280;11754;42.664;23.594;2022-10-31T05:30:17;96024.69;;;11.07;65.94
23172;BME280;11754;42.664;23.594;2022-10-31T05:32:47;96032.34;;;11.19;65.88
23172;BME280;11754;42.664;23.594;2022-10-31T05:35:18;96025.88;;;11.21;65.65
23172;BME280;11754;42.664;23.594;2022-10-31T05:37:44;96044.91;;;11.25;65.52
23172;BME280;11754;42.664;23.594;2022-10-31T05:40:11;96049.00;;;11.19;65.20
23172;BME280;11754;42.664;23.594;2022-10-31T05:42:39;96039.06;;;11.13;65.49
23172;BME280;11754;42.664;23.594;2022-10-31T05:45:06;96057.28;;;11.24;65.51
23172;BME280;11754;42.664;23.594;2022-10-31T05:47:32;96051.06;;;11.34;65.26
23172;BME280;11754;42.664;23.594;2022-10-31T05:49:57;96051.09;;;11.42;64.89
23172;BME280;11754;42.664;23.594;2022-10-31T05:52:22;96052.34;;;11.55;64.64
23172;BME280;11754;42.664;23.594;2022-10-31T05:54:48;96058.47;;;11.64;64.07
23172;BME280;11754;42.664;23.594;2022-10-31T05:57:13;96062.81;;;11.73;64.01
23172;BME280;11754;42.664;23.594;2022-10-31T05:59:38;96063.84;;;11.81;63.71
23172;BME280;11754;42.664;23.594;2022-10-31T06:02:04;96051.00;;;11.86;63.49
23172;BME280;11754;42.664;23.594;2022-10-31T06:04:29;96049.72;;;11.98;63.33
23172;BME280;11754;42.664;23.594;2022-10-31T06:06:56;96069.25;;;12.13;62.79
23172;BME280;11754;42.664;23.594;2022-10-31T06:09:22;96064.66;;;12.32;62.28
23172;BME280;11754;42.664;23.594;2022-10-31T06:11:48;96077.25;;;12.54;61.31
23172;BME280;11754;42.664;23.594;2022-10-31T06:14:13;96081.25;;;12.74;60.95
23172;BME280;11754;42.664;23.594;2022-10-31T06:16:38;96078.94;;;12.96;60.67
23172;BME280;11754;42.664;23.594;2022-10-31T06:19:04;96078.28;;;13.10;59.84
23172;BME280;11754;42.664;23.594;2022-10-31T06:21:29;96084.56;;;13.34;59.23
23172;BME280;11754;42.664;23.594;2022-10-31T06:23:54;96096.94;;;13.58;58.33
23172;BME280;11754;42.664;23.594;2022-10-31T06:26:20;96096.75;;;13.67;58.10
23172;BME280;11754;42.664;23.594;2022-10-31T06:28:45;96092.28;;;13.68;57.67
23172;BME280;11754;42.664;23.594;2022-10-31T06:31:11;96095.03;;;13.83;57.34
23172;BME280;11754;42.664;23.594;2022-10-31T06:33:36;96094.25;;;14.13;56.56
23172;BME280;11754;42.664;23.594;2022-10-31T06:36:01;96096.34;;;14.26;56.18
23172;BME280;11754;42.664;23.594;2022-10-31T06:38:27;96092.06;;;14.48;55.34
23172;BME280;11754;42.664;23.594;2022-10-31T06:40:53;96104.88;;;14.76;54.63
23172;BME280;11754;42.664;23.594;2022-10-31T06:43:20;96106.81;;;14.82;54.23
23172;BME280;11754;42.664;23.594;2022-10-31T06:45:45;96100.78;;;14.88;53.96
23172;BME280;11754;42.664;23.594;2022-10-31T06:48:11;96093.34;;;15.06;53.49
23172;BME280;11754;42.664;23.594;2022-10-31T06:50:36;96083.16;;;15.33;52.24
23172;BME280;11754;42.664;23.594;2022-10-31T06:53:02;96083.53;;;15.59;50.99
23172;BME280;11754;42.664;23.594;2022-10-31T06:55:28;96103.78;;;15.69;51.17
23172;BME280;11754;42.664;23.594;2022-10-31T06:57:58;96101.00;;;15.77;51.54
23172;BME280;11754;42.664;23.594;2022-10-31T07:00:26;96092.66;;;15.95;51.55
23172;BME280;11754;42.664;23.594;2022-10-31T07:03:00;96095.47;;;16.23;50.34
23172;BME280;11754;42.664;23.594;2022-10-31T07:05:27;96094.13;;;16.48;49.44
23172;BME280;11754;42.664;23.594;2022-10-31T07:07:58;96095.34;;;16.82;48.45
23172;BME280;11754;42.664;23.594;2022-10-31T07:10:25;96080.00;;;16.69;48.31
23172;BME280;11754;42.664;23.594;2022-10-31T07:12:59;96099.03;;;16.81;48.24
23172;BME280;11754;42.664;23.594;2022-10-31T07:15:25;96087.72;;;17.00;48.20
23172;BME280;11754;42.664;23.594;2022-10-31T07:17:51;96077.03;;;17.22;47.57
23172;BME280;11754;42.664;23.594;2022-10-31T07:20:17;96079.88;;;17.48;46.52
23172;BME280;11754;42.664;23.594;2022-10-31T07:22:42;96067.47;;;17.62;46.28
23172;BME280;11754;42.664;23.594;2022-10-31T07:25:09;96064.63;;;17.70;45.70
23172;BME280;11754;42.664;23.594;2022-10-31T07:27:39;96082.75;;;18.10;45.49
23172;BME280;11754;42.664;23.594;2022-10-31T07:30:06;96076.50;;;18.37;44.56
23172;BME280;11754;42.664;23.594;2022-10-31T07:32:42;96069.34;;;18.44;44.02
23172;BME280;11754;42.664;23.594;2022-10-31T07:35:10;96071.44;;;18.62;43.71
23172;BME280;11754;42.664;23.594;2022-10-31T07:37:36;96079.84;;;18.59;44.35
23172;BME280;11754;42.664;23.594;2022-10-31T07:40:08;96069.84;;;18.81;43.52
23172;BME280;11754;42.664;23.594;2022-10-31T07:42:41;96080.78;;;19.00;43.20
23172;BME280;11754;42.664;23.594;2022-10-31T07:45:10;96086.56;;;19.23;42.89
23172;BME280;11754;42.664;23.594;2022-10-31T07:47:43;96077.44;;;19.90;41.55
23172;BME280;11754;42.664;23.594;2022-10-31T07:50:11;96063.94;;;20.30;40.76
23172;BME280;11754;42.664;23.594;2022-10-31T07:52:36;96059.72;;;20.93;39.72
23172;BME280;11754;42.664;23.594;2022-10-31T07:55:03;96068.97;;;20.97;38.89
23172;BME280;11754;42.664;23.594;2022-10-31T07:57:29;96077.84;;;21.22;38.79
23172;BME280;11754;42.664;23.594;2022-10-31T07:59:54;96070.50;;;21.43;38.41
23172;BME280;11754;42.664;23.594;2022-10-31T08:02:19;96067.19;;;21.66;38.28
23172;BME280;11754;42.664;23.594;2022-10-31T08:04:45;96066.78;;;21.44;37.84
23172;BME280;11754;42.664;23.594;2022-10-31T08:07:10;96066.63;;;21.39;38.42
23172;BME280;11754;42.664;23.594;2022-10-31T08:09:36;96057.78;;;21.31;38.29
23172;BME280;11754;42.664;23.594;2022-10-31T08:12:01;96058.69;;;21.69;38.17
23172;BME280;11754;42.664;23.594;2022-10-31T08:14:27;96068.75;;;22.17;37.11
23172;BME280;11754;42.664;23.594;2022-10-31T08:16:53;96063.78;;;22.14;37.14
23172;BME280;11754;42.664;23.594;2022-10-31T08:19:19;96075.19;;;21.91;37.25
23172;BME280;11754;42.664;23.594;2022-10-31T08:21:45;96050.72;;;21.99;37.45
23172;BME280;11754;42.664;23.594;2022-10-31T08:24:10;96070.06;;;22.44;36.86
23172;BME280;11754;42.664;23.594;2022-10-31T08:26:35;96063.41;;;22.65;36.40
23172;BME280;11754;42.664;23.594;2022-10-31T08:29:01;96062.97;;;23.10;36.02
23172;BME280;11754;42.664;23.594;2022-10-31T08:31:28;96043.75;;;24.36;33.37
23172;BME280;11754;42.664;23.594;2022-10-31T08:33:53;96046.50;;;24.64;33.50
23172;BME280;11754;42.664;23.594;2022-10-31T08:36:20;96050.56;;;25.58;31.70
23172;BME280;11754;42.664;23.594;2022-10-31T08:38:46;96043.41;;;26.46;30.73
23172;BME280;11754;42.664;23.594;2022-10-31T08:41:12;96052.94;;;27.99;28.85
23172;BME280;11754;42.664;23.594;2022-10-31T08:43:37;96046.56;;;28.26;28.23
23172;BME280;11754;42.664;23.594;2022-10-31T08:46:03;96042.53;;;29.32;26.59
23172;BME280;11754;42.664;23.594;2022-10-31T08:48:28;96056.59;;;28.93;26.51
23172;BME280;11754;42.664;23.594;2022-10-31T08:50:56;96056.53;;;30.42;25.31
23172;BME280;11754;42.664;23.594;2022-10-31T08:53:22;96042.97;;;31.99;23.37
23172;BME280;11754;42.664;23.594;2022-10-31T08:55:48;96044.13;;;33.27;22.04
23172;BME280;11754;42.664;23.594;2022-10-31T08:58:18;96031.91;;;34.72;20.45
23172;BME280;11754;42.664;23.594;2022-10-31T09:00:45;96025.84;;;36.32;19.08
23172;BME280;11754;42.664;23.594;2022-10-31T09:03:19;96022.28;;;37.41;17.99
23172;BME280;11754;42.664;23.594;2022-10-31T09:05:44;96023.56;;;38.64;16.68
23172;BME280;11754;42.664;23.594;2022-10-31T09:08:11;96021.59;;;40.72;15.04
23172;BME280;11754;42.664;23.594;2022-10-31T09:10:37;96016.50;;;41.67;14.13
23172;BME280;11754;42.664;23.594;2022-10-31T09:13:08;96024.75;;;41.11;14.42
23172;BME280;11754;42.664;23.594;2022-10-31T09:15:35;96018.00;;;43.62;12.91
23172;BME280;11754;42.664;23.594;2022-10-31T09:18:01;96014.97;;;45.09;12.09
23172;BME280;11754;42.664;23.594;2022-10-31T09:20:27;96003.97;;;46.72;10.92
23172;BME280;11754;42.664;23.594;2022-10-31T09:22:58;96004.09;;;47.81;10.25
23172;BME280;11754;42.664;23.594;2022-10-31T09:25:23;95998.59;;;48.84;9.80
23172;BME280;11754;42.664;23.594;2022-10-31T09:27:49;95999.53;;;49.62;9.39
23172;BME280;11754;42.664;23.594;2022-10-31T09:30:14;96000.72;;;50.80;8.80
23172;BME280;11754;42.664;23.594;2022-10-31T09:32:40;95994.38;;;50.20;8.55
23172;BME280;11754;42.664;23.594;2022-10-31T09:35:05;95993.50;;;49.71;8.96
23172;BME280;11754;42.664;23.594;2022-10-31T09:37:31;95990.03;;;49.42;8.96
23172;BME280;11754;42.664;23.594;2022-10-31T09:39:56;95995.41;;;49.85;8.57
23172;BME280;11754;42.664;23.594;2022-10-31T09:50:33;95988.97;;;53.32;7.05
23172;BME280;11754;42.664;23.594;2022-10-31T09:53:18;95982.56;;;51.56;7.72
23172;BME280;11754;42.664;23.594;2022-10-31T09:55:49;95975.69;;;52.89;7.53
23172;BME280;11754;42.664;23.594;2022-10-31T09:58:27;95968.00;;;54.55;6.58
23172;BME280;11754;42.664;23.594;2022-10-31T10:00:55;95966.06;;;55.68;5.96
23172;BME280;11754;42.664;23.594;2022-10-31T10:03:42;95959.81;;;56.50;5.55
23172;BME280;11754;42.664;23.594;2022-10-31T10:06:14;95947.78;;;56.93;5.68
23172;BME280;11754;42.664;23.594;2022-10-31T10:08:42;95952.66;;;56.58;5.83
23172;BME280;11754;42.664;23.594;2022-10-31T10:22:09;95949.72;;;58.80;4.54
23172;BME280;11754;42.664;23.594;2022-10-31T10:25:19;95939.66;;;55.04;5.94
23172;BME280;11754;42.664;23.594;2022-10-31T10:27:47;95935.53;;;50.61;7.96
23172;BME280;11754;42.664;23.594;2022-10-31T10:30:59;95935.38;;;47.55;9.53
23172;BME280;11754;42.664;23.594;2022-10-31T10:33:13;95936.88;;;46.58;10.00
23172;BME280;11754;42.664;23.594;2022-10-31T10:40:33;95905.72;;;54.91;6.33
23172;BME280;11754;42.664;23.594;2022-10-31T10:45:46;95901.78;;;48.83;8.67
23172;BME280;11754;42.664;23.594;2022-10-31T10:48:54;95913.91;;;45.79;10.35
23172;BME280;11754;42.664;23.594;2022-10-31T10:51:36;95903.34;;;45.95;10.51
23172;BME280;11754;42.664;23.594;2022-10-31T10:59:11;95907.16;;;54.05;6.43
23172;BME280;11754;42.664;23.594;2022-10-31T11:01:39;95899.88;;;55.11;5.91
23172;BME280;11754;42.664;23.594;2022-10-31T11:04:39;95888.56;;;55.78;6.04
23172;BME280;11754;42.664;23.594;2022-10-31T11:07:06;95891.97;;;55.73;5.80
23172;BME280;11754;42.664;23.594;2022-10-31T11:09:33;95879.63;;;56.53;5.47
23172;BME280;11754;42.664;23.594;2022-10-31T11:11:59;95895.19;;;57.14;5.00
23172;BME280;11754;42.664;23.594;2022-10-31T11:14:30;95879.63;;;58.58;4.99
23172;BME280;11754;42.664;23.594;2022-10-31T11:17:39;95873.88;;;59.13;4.36
23172;BME280;11754;42.664;23.594;2022-10-31T11:22:44;95863.88;;;59.79;4.19
23172;BME280;11754;42.664;23.594;2022-10-31T11:27:45;95864.09;;;59.24;4.33
23172;BME280;11754;42.664;23.594;2022-10-31T11:30:13;95847.47;;;57.75;4.42
23172;BME280;11754;42.664;23.594;2022-10-31T11:32:47;95849.38;;;56.02;5.43
23172;BME280;11754;42.664;23.594;2022-10-31T11:35:16;95846.69;;;55.48;5.38
23172;BME280;11754;42.664;23.594;2022-10-31T11:37:45;95848.72;;;54.51;5.94
23172;BME280;11754;42.664;23.594;2022-10-31T11:40:17;95836.47;;;53.95;6.03
23172;BME280;11754;42.664;23.594;2022-10-31T11:42:43;95830.25;;;55.17;5.80
23172;BME280;11754;42.664;23.594;2022-10-31T11:45:16;95836.28;;;55.96;5.80
23172;BME280;11754;42.664;23.594;2022-10-31T11:47:46;95826.47;;;57.72;5.20
23172;BME280;11754;42.664;23.594;2022-10-31T11:50:19;95831.16;;;57.66;4.64
23172;BME280;11754;42.664;23.594;2022-10-31T11:52:45;95829.97;;;56.26;5.44
23172;BME280;11754;42.664;23.594;2022-10-31T11:57:45;95817.56;;;57.52;4.70
23172;BME280;11754;42.664;23.594;2022-10-31T12:02:48;95825.78;;;58.64;4.58
23172;BME280;11754;42.664;23.594;2022-10-31T12:05:23;95816.56;;;59.06;4.40
23172;BME280;11754;42.664;23.594;2022-10-31T12:07:50;95814.50;;;59.15;4.23
23172;BME280;11754;42.664;23.594;2022-10-31T12:10:16;95821.84;;;58.80;4.25
23172;BME280;11754;42.664;23.594;2022-10-31T12:21:23;95824.66;;;62.00;3.63
23172;BME280;11754;42.664;23.594;2022-10-31T12:45:57;95819.88;;;62.78;2.83
23172;BME280;11754;42.664;23.594;2022-10-31T12:59:32;95812.09;;;61.91;2.78
23172;BME280;11754;42.664;23.594;2022-10-31T13:04:39;95809.22;;;61.21;3.11
23172;BME280;11754;42.664;23.594;2022-10-31T13:07:12;95812.06;;;61.21;2.80
23172;BME280;11754;42.664;23.594;2022-10-31T13:12:39;95805.56;;;61.06;3.44
23172;BME280;11754;42.664;23.594;2022-10-31T13:15:27;95805.91;;;60.93;3.38
23172;BME280;11754;42.664;23.594;2022-10-31T13:18:01;95811.47;;;60.72;3.85
23172;BME280;11754;42.664;23.594;2022-10-31T13:20:44;95800.38;;;58.69;4.27
23172;BME280;11754;42.664;23.594;2022-10-31T13:25:52;95812.81;;;57.40;3.94
23172;BME280;11754;42.664;23.594;2022-10-31T13:28:28;95802.41;;;56.83;4.29
23172;BME280;11754;42.664;23.594;2022-10-31T13:30:54;95800.41;;;55.93;5.08
23172;BME280;11754;42.664;23.594;2022-10-31T13:33:25;95796.16;;;55.62;4.72
23172;BME280;11754;42.664;23.594;2022-10-31T13:41:06;95799.69;;;53.99;5.44
23172;BME280;11754;42.664;23.594;2022-10-31T13:48:58;95790.25;;;53.40;5.50
23172;BME280;11754;42.664;23.594;2022-10-31T13:51:30;95788.22;;;52.48;5.98
23172;BME280;11754;42.664;23.594;2022-10-31T13:53:57;95808.53;;;52.36;6.43
23172;BME280;11754;42.664;23.594;2022-10-31T13:56:34;95812.16;;;52.56;6.31
23172;BME280;11754;42.664;23.594;2022-10-31T14:01:33;95807.72;;;51.92;6.11
23172;BME280;11754;42.664;23.594;2022-10-31T14:09:17;95799.25;;;50.15;7.48
23172;BME280;11754;42.664;23.594;2022-10-31T14:11:46;95815.19;;;49.81;7.19
23172;BME280;11754;42.664;23.594;2022-10-31T14:14:13;95803.66;;;49.12;7.79
23172;BME280;11754;42.664;23.594;2022-10-31T14:16:42;95808.56;;;48.94;7.64
23172;BME280;11754;42.664;23.594;2022-10-31T14:19:17;95801.53;;;48.43;7.97
23172;BME280;11754;42.664;23.594;2022-10-31T14:21:47;95814.81;;;47.53;8.23
23172;BME280;11754;42.664;23.594;2022-10-31T14:29:44;95815.56;;;44.97;9.77
23172;BME280;11754;42.664;23.594;2022-10-31T14:34:40;95819.31;;;43.45;10.92
23172;BME280;11754;42.664;23.594;2022-10-31T14:45:58;95817.81;;;39.96;12.83
23172;BME280;11754;42.664;23.594;2022-10-31T14:51:15;95824.41;;;36.54;15.50
23172;BME280;11754;42.664;23.594;2022-10-31T14:53:48;95830.88;;;35.44;16.39
23172;BME280;11754;42.664;23.594;2022-10-31T14:56:21;95840.84;;;34.41;17.35
23172;BME280;11754;42.664;23.594;2022-10-31T14:58:48;95840.63;;;33.33;18.33
23172;BME280;11754;42.664;23.594;2022-10-31T15:01:30;95838.38;;;32.37;19.32
23172;BME280;11754;42.664;23.594;2022-10-31T15:04:20;95834.06;;;31.50;20.42
23172;BME280;11754;42.664;23.594;2022-10-31T15:07:08;95847.31;;;30.35;21.70
23172;BME280;11754;42.664;23.594;2022-10-31T15:09:37;95843.09;;;29.43;22.62
23172;BME280;11754;42.664;23.594;2022-10-31T15:12:25;95845.34;;;28.60;23.48
23172;BME280;11754;42.664;23.594;2022-10-31T15:14:51;95838.50;;;28.11;23.80
23172;BME280;11754;42.664;23.594;2022-10-31T15:17:17;95842.94;;;27.60;24.92
23172;BME280;11754;42.664;23.594;2022-10-31T15:19:43;95842.53;;;26.93;25.88
23172;BME280;11754;42.664;23.594;2022-10-31T15:22:17;95854.66;;;26.48;26.20
23172;BME280;11754;42.664;23.594;2022-10-31T15:24:44;95863.81;;;26.20;26.66
23172;BME280;11754;42.664;23.594;2022-10-31T15:27:16;95861.50;;;25.80;27.31
23172;BME280;11754;42.664;23.594;2022-10-31T15:29:54;95865.94;;;25.47;27.80
23172;BME280;11754;42.664;23.594;2022-10-31T15:32:25;95866.66;;;25.21;28.31
23172;BME280;11754;42.664;23.594;2022-10-31T15:34:51;95873.94;;;25.03;28.79
23172;BME280;11754;42.664;23.594;2022-10-31T15:37:19;95874.78;;;24.87;28.98
23172;BME280;11754;42.664;23.594;2022-10-31T15:39:46;95876.09;;;24.67;29.30
23172;BME280;11754;42.664;23.594;2022-10-31T15:44:49;95869.13;;;24.38;29.71
23172;BME280;11754;42.664;23.594;2022-10-31T15:47:18;95874.94;;;24.18;30.13
23172;BME280;11754;42.664;23.594;2022-10-31T15:49:54;95887.50;;;24.12;30.41